sensor_id;sensor_type;location;lat;lon;timestamp;P1;durP1;ratioP1;P2;durP2;ratioP2
63398;SDS011;49533;-34.520;150.798;2023-06-10T00:00:30;2.00;;;1.05;;
63398;SDS011;49533;-34.520;150.798;2023-06-10T00:02:57;1.17;;;0.63;;
63398;SDS011;49533;-34.520;150.798;2023-06-10T00:05:25;1.42;;;0.90;;
63398;SDS011;49533;-34.520;150.798;2023-06-10T00:07:55;1.42;;;0.55;;
63398;SDS011;49533;-34.520;150.798;2023-06-10T00:10:24;1.25;;;0.68;;
63398;SDS011;49533;-34.520;150.798;2023-06-10T00:12:52;3.55;;;1.40;;
63398;SDS011;49533;-34.520;150.798;2023-06-10T00:15:29;3.38;;;0.75;;
63398;SDS011;49533;-34.520;150.798;2023-06-10T00:17:57;2.08;;;0.77;;
63398;SDS011;49533;-34.520;150.798;2023-06-10T00:20:25;1.15;;;0.60;;
63398;SDS011;49533;-34.520;150.798;2023-06-10T00:23:00;2.97;;;0.93;;
63398;SDS011;49533;-34.520;150.798;2023-06-10T00:25:37;2.55;;;0.80;;
63398;SDS011;49533;-34.520;150.798;2023-06-10T00:28:04;2.35;;;0.68;;
63398;SDS011;49533;-34.520;150.798;2023-06-10T00:30:31;2.17;;;0.47;;
63398;SDS011;49533;-34.520;150.798;2023-06-10T00:33:01;1.75;;;0.90;;
63398;SDS011;49533;-34.520;150.798;2023-06-10T00:35:29;4.35;;;1.10;;
63398;SDS011;49533;-34.520;150.798;2023-06-10T00:37:56;1.77;;;0.68;;
63398;SDS011;49533;-34.520;150.798;2023-06-10T00:40:23;1.90;;;0.63;;
63398;SDS011;49533;-34.520;150.798;2023-06-10T00:42:50;1.92;;;0.98;;
63398;SDS011;49533;-34.520;150.798;2023-06-10T00:45:18;1.40;;;0.93;;
63398;SDS011;49533;-34.520;150.798;2023-06-10T00:47:50;2.10;;;0.75;;
63398;SDS011;49533;-34.520;150.798;2023-06-10T00:50:17;1.80;;;0.70;;
63398;SDS011;49533;-34.520;150.798;2023-06-10T00:52:45;0.85;;;0.40;;
63398;SDS011;49533;-34.520;150.798;2023-06-10T00:55:15;2.33;;;0.65;;
63398;SDS011;49533;-34.520;150.798;2023-06-10T00:57:44;3.30;;;0.90;;
63398;SDS011;49533;-34.520;150.798;2023-06-10T01:00:14;1.35;;;0.47;;
63398;SDS011;49533;-34.520;150.798;2023-06-10T01:02:41;1.85;;;0.75;;
63398;SDS011;49533;-34.520;150.798;2023-06-10T01:05:09;1.90;;;0.93;;
63398;SDS011;49533;-34.520;150.798;2023-06-10T01:07:40;2.03;;;0.57;;
63398;SDS011;49533;-34.520;150.798;2023-06-10T01:10:22;1.40;;;0.45;;
63398;SDS011;49533;-34.520;150.798;2023-06-10T01:12:59;3.97;;;0.98;;
63398;SDS011;49533;-34.520;150.798;2023-06-10T01:15:29;1.60;;;0.68;;
63398;SDS011;49533;-34.520;150.798;2023-06-10T01:17:59;1.67;;;0.70;;
63398;SDS011;49533;-34.520;150.798;2023-06-10T01:20:28;1.33;;;0.50;;
63398;SDS011;49533;-34.520;150.798;2023-06-10T01:22:57;1.27;;;0.50;;
63398;SDS011;49533;-34.520;150.798;2023-06-10T01:25:25;2.35;;;0.80;;
63398;SDS011;49533;-34.520;150.798;2023-06-10T01:27:57;0.85;;;0.47;;
63398;SDS011;49533;-34.520;150.798;2023-06-10T01:33:27;1.10;;;0.45;;
63398;SDS011;49533;-34.520;150.798;2023-06-10T01:35:58;1.45;;;0.68;;
63398;SDS011;49533;-34.520;150.798;2023-06-10T01:38:27;1.92;;;0.70;;
63398;SDS011;49533;-34.520;150.798;2023-06-10T01:41:00;1.70;;;0.60;;
63398;SDS011;49533;-34.520;150.798;2023-06-10T01:43:27;1.48;;;0.57;;
63398;SDS011;49533;-34.520;150.798;2023-06-10T01:45:54;2.88;;;0.70;;
63398;SDS011;49533;-34.520;150.798;2023-06-10T01:48:21;2.45;;;0.98;;
63398;SDS011;49533;-34.520;150.798;2023-06-10T01:50:48;0.73;;;0.50;;
63398;SDS011;49533;-34.520;150.798;2023-06-10T01:53:15;1.15;;;0.68;;
63398;SDS011;49533;-34.520;150.798;2023-06-10T01:55:43;3.35;;;0.50;;
63398;SDS011;49533;-34.520;150.798;2023-06-10T01:58:10;1.33;;;0.70;;
63398;SDS011;49533;-34.520;150.798;2023-06-10T02:00:37;1.88;;;0.68;;
63398;SDS011;49533;-34.520;150.798;2023-06-10T02:03:04;1.23;;;0.65;;
63398;SDS011;49533;-34.520;150.798;2023-06-10T02:05:31;0.80;;;0.50;;
63398;SDS011;49533;-34.520;150.798;2023-06-10T02:07:59;2.08;;;0.77;;
63398;SDS011;49533;-34.520;150.798;2023-06-10T02:10:26;1.45;;;1.17;;
63398;SDS011;49533;-34.520;150.798;2023-06-10T02:12:54;0.90;;;0.57;;
63398;SDS011;49533;-34.520;150.798;2023-06-10T02:15:21;1.73;;;0.65;;
63398;SDS011;49533;-34.520;150.798;2023-06-10T02:17:48;1.67;;;0.60;;
63398;SDS011;49533;-34.520;150.798;2023-06-10T02:20:16;1.85;;;0.52;;
63398;SDS011;49533;-34.520;150.798;2023-06-10T02:22:43;1.30;;;0.55;;
63398;SDS011;49533;-34.520;150.798;2023-06-10T02:25:10;1.10;;;1.00;;
63398;SDS011;49533;-34.520;150.798;2023-06-10T02:27:37;1.27;;;0.52;;
63398;SDS011;49533;-34.520;150.798;2023-06-10T02:30:04;0.98;;;0.63;;
63398;SDS011;49533;-34.520;150.798;2023-06-10T02:32:32;1.95;;;0.90;;
63398;SDS011;49533;-34.520;150.798;2023-06-10T02:34:59;1.02;;;0.60;;
63398;SDS011;49533;-34.520;150.798;2023-06-10T02:37:27;1.80;;;0.65;;
63398;SDS011;49533;-34.520;150.798;2023-06-10T02:39:54;1.35;;;0.60;;
63398;SDS011;49533;-34.520;150.798;2023-06-10T02:42:21;1.85;;;0.63;;
63398;SDS011;49533;-34.520;150.798;2023-06-10T02:44:49;1.00;;;0.50;;
63398;SDS011;49533;-34.520;150.798;2023-06-10T02:47:16;2.13;;;0.45;;
63398;SDS011;49533;-34.520;150.798;2023-06-10T02:49:43;1.17;;;0.73;;
63398;SDS011;49533;-34.520;150.798;2023-06-10T02:52:10;0.88;;;0.52;;
63398;SDS011;49533;-34.520;150.798;2023-06-10T02:54:37;4.53;;;0.88;;
63398;SDS011;49533;-34.520;150.798;2023-06-10T02:57:05;1.90;;;0.57;;
63398;SDS011;49533;-34.520;150.798;2023-06-10T02:59:32;7.57;;;1.70;;
63398;SDS011;49533;-34.520;150.798;2023-06-10T03:02:00;19.67;;;2.65;;
63398;SDS011;49533;-34.520;150.798;2023-06-10T03:04:27;15.55;;;2.33;;
63398;SDS011;49533;-34.520;150.798;2023-06-10T03:06:56;7.38;;;2.03;;
63398;SDS011;49533;-34.520;150.798;2023-06-10T03:09:23;7.65;;;2.05;;
63398;SDS011;49533;-34.520;150.798;2023-06-10T03:11:51;3.78;;;1.30;;
63398;SDS011;49533;-34.520;150.798;2023-06-10T03:14:18;13.73;;;2.22;;
63398;SDS011;49533;-34.520;150.798;2023-06-10T03:16:45;2.75;;;1.38;;
63398;SDS011;49533;-34.520;150.798;2023-06-10T03:19:12;3.78;;;0.93;;
63398;SDS011;49533;-34.520;150.798;2023-06-10T03:21:43;4.40;;;1.50;;
63398;SDS011;49533;-34.520;150.798;2023-06-10T03:24:11;2.30;;;1.20;;
63398;SDS011;49533;-34.520;150.798;2023-06-10T03:26:38;1.98;;;1.25;;
63398;SDS011;49533;-34.520;150.798;2023-06-10T03:29:05;2.53;;;1.00;;
63398;SDS011;49533;-34.520;150.798;2023-06-10T03:31:32;1.90;;;1.05;;
63398;SDS011;49533;-34.520;150.798;2023-06-10T03:34:02;1.38;;;0.70;;
63398;SDS011;49533;-34.520;150.798;2023-06-10T03:36:29;1.88;;;0.80;;
63398;SDS011;49533;-34.520;150.798;2023-06-10T03:38:56;2.45;;;1.08;;
63398;SDS011;49533;-34.520;150.798;2023-06-10T03:41:23;1.85;;;0.82;;
63398;SDS011;49533;-34.520;150.798;2023-06-10T03:43:51;2.17;;;0.80;;
63398;SDS011;49533;-34.520;150.798;2023-06-10T03:46:18;2.88;;;1.08;;
63398;SDS011;49533;-34.520;150.798;2023-06-10T03:48:45;1.45;;;0.60;;
63398;SDS011;49533;-34.520;150.798;2023-06-10T03:51:13;1.88;;;0.80;;
63398;SDS011;49533;-34.520;150.798;2023-06-10T03:53:41;3.05;;;0.77;;
63398;SDS011;49533;-34.520;150.798;2023-06-10T03:56:08;2.20;;;0.60;;
63398;SDS011;49533;-34.520;150.798;2023-06-10T03:58:35;2.88;;;1.00;;
63398;SDS011;49533;-34.520;150.798;2023-06-10T04:01:02;2.05;;;1.00;;
63398;SDS011;49533;-34.520;150.798;2023-06-10T04:03:29;2.53;;;1.17;;
63398;SDS011;49533;-34.520;150.798;2023-06-10T04:05:57;1.17;;;0.77;;
63398;SDS011;49533;-34.520;150.798;2023-06-10T04:08:24;1.25;;;0.68;;
63398;SDS011;49533;-34.520;150.798;2023-06-10T04:10:51;1.95;;;0.65;;
63398;SDS011;49533;-34.520;150.798;2023-06-10T04:13:19;2.35;;;0.65;;
63398;SDS011;49533;-34.520;150.798;2023-06-10T04:15:46;1.33;;;0.65;;
63398;SDS011;49533;-34.520;150.798;2023-06-10T04:18:13;1.45;;;0.60;;
63398;SDS011;49533;-34.520;150.798;2023-06-10T04:20:41;2.83;;;1.13;;
63398;SDS011;49533;-34.520;150.798;2023-06-10T04:23:10;4.53;;;1.00;;
63398;SDS011;49533;-34.520;150.798;2023-06-10T04:25:37;1.70;;;0.63;;
63398;SDS011;49533;-34.520;150.798;2023-06-10T04:28:04;1.42;;;0.85;;
63398;SDS011;49533;-34.520;150.798;2023-06-10T04:30:31;2.22;;;0.90;;
63398;SDS011;49533;-34.520;150.798;2023-06-10T04:32:58;2.97;;;1.00;;
63398;SDS011;49533;-34.520;150.798;2023-06-10T04:35:26;1.95;;;0.90;;
63398;SDS011;49533;-34.520;150.798;2023-06-10T04:37:53;4.43;;;1.20;;
63398;SDS011;49533;-34.520;150.798;2023-06-10T04:40:20;5.88;;;0.95;;
63398;SDS011;49533;-34.520;150.798;2023-06-10T04:42:48;1.85;;;0.80;;
63398;SDS011;49533;-34.520;150.798;2023-06-10T04:45:15;3.00;;;0.80;;
63398;SDS011;49533;-34.520;150.798;2023-06-10T04:47:43;3.60;;;0.85;;
63398;SDS011;49533;-34.520;150.798;2023-06-10T04:50:10;2.58;;;1.02;;
63398;SDS011;49533;-34.520;150.798;2023-06-10T04:52:37;4.78;;;1.48;;
63398;SDS011;49533;-34.520;150.798;2023-06-10T04:55:07;7.20;;;1.27;;
63398;SDS011;49533;-34.520;150.798;2023-06-10T04:57:35;4.72;;;1.02;;
63398;SDS011;49533;-34.520;150.798;2023-06-10T05:00:02;7.95;;;0.93;;
63398;SDS011;49533;-34.520;150.798;2023-06-10T05:02:31;5.65;;;1.17;;
63398;SDS011;49533;-34.520;150.798;2023-06-10T05:04:58;4.03;;;1.05;;
63398;SDS011;49533;-34.520;150.798;2023-06-10T05:07:25;1.85;;;0.55;;
63398;SDS011;49533;-34.520;150.798;2023-06-10T05:09:52;3.95;;;0.77;;
63398;SDS011;49533;-34.520;150.798;2023-06-10T05:12:20;6.40;;;0.98;;
63398;SDS011;49533;-34.520;150.798;2023-06-10T05:14:48;4.22;;;1.00;;
63398;SDS011;49533;-34.520;150.798;2023-06-10T05:17:15;2.65;;;1.10;;
63398;SDS011;49533;-34.520;150.798;2023-06-10T05:19:42;6.53;;;0.80;;
63398;SDS011;49533;-34.520;150.798;2023-06-10T05:22:10;1.35;;;0.65;;
63398;SDS011;49533;-34.520;150.798;2023-06-10T05:24:37;2.60;;;1.05;;
63398;SDS011;49533;-34.520;150.798;2023-06-10T05:27:04;3.03;;;0.85;;
63398;SDS011;49533;-34.520;150.798;2023-06-10T05:29:32;1.40;;;0.82;;
63398;SDS011;49533;-34.520;150.798;2023-06-10T05:31:59;2.92;;;0.90;;
63398;SDS011;49533;-34.520;150.798;2023-06-10T05:34:29;2.63;;;0.60;;
63398;SDS011;49533;-34.520;150.798;2023-06-10T05:36:56;1.80;;;0.63;;
63398;SDS011;49533;-34.520;150.798;2023-06-10T05:39:24;2.63;;;1.13;;
63398;SDS011;49533;-34.520;150.798;2023-06-10T05:41:51;3.85;;;1.33;;
63398;SDS011;49533;-34.520;150.798;2023-06-10T05:44:18;3.13;;;0.75;;
63398;SDS011;49533;-34.520;150.798;2023-06-10T05:46:46;5.75;;;0.90;;
63398;SDS011;49533;-34.520;150.798;2023-06-10T05:49:13;2.55;;;1.35;;
63398;SDS011;49533;-34.520;150.798;2023-06-10T05:51:40;2.13;;;0.73;;
63398;SDS011;49533;-34.520;150.798;2023-06-10T05:54:07;2.33;;;0.60;;
63398;SDS011;49533;-34.520;150.798;2023-06-10T05:56:34;1.85;;;0.85;;
63398;SDS011;49533;-34.520;150.798;2023-06-10T05:59:01;1.33;;;0.65;;
63398;SDS011;49533;-34.520;150.798;2023-06-10T06:01:28;1.85;;;0.68;;
63398;SDS011;49533;-34.520;150.798;2023-06-10T06:03:55;1.98;;;0.88;;
63398;SDS011;49533;-34.520;150.798;2023-06-10T06:06:22;1.85;;;0.77;;
63398;SDS011;49533;-34.520;150.798;2023-06-10T06:08:50;0.40;;;0.25;;
63398;SDS011;49533;-34.520;150.798;2023-06-10T06:11:17;2.17;;;0.88;;
63398;SDS011;49533;-34.520;150.798;2023-06-10T06:13:44;1.25;;;0.65;;
63398;SDS011;49533;-34.520;150.798;2023-06-10T06:16:13;2.35;;;0.70;;
63398;SDS011;49533;-34.520;150.798;2023-06-10T06:18:41;1.52;;;0.80;;
63398;SDS011;49533;-34.520;150.798;2023-06-10T06:21:08;2.50;;;1.00;;
63398;SDS011;49533;-34.520;150.798;2023-06-10T06:23:36;2.08;;;0.60;;
63398;SDS011;49533;-34.520;150.798;2023-06-10T06:26:03;1.52;;;0.60;;
63398;SDS011;49533;-34.520;150.798;2023-06-10T06:28:30;0.90;;;0.57;;
63398;SDS011;49533;-34.520;150.798;2023-06-10T06:30:57;1.05;;;0.45;;
63398;SDS011;49533;-34.520;150.798;2023-06-10T06:33:24;2.25;;;0.90;;
63398;SDS011;49533;-34.520;150.798;2023-06-10T06:35:52;1.20;;;0.80;;
63398;SDS011;49533;-34.520;150.798;2023-06-10T06:38:19;2.28;;;0.95;;
63398;SDS011;49533;-34.520;150.798;2023-06-10T06:40:46;2.03;;;0.98;;
63398;SDS011;49533;-34.520;150.798;2023-06-10T06:43:13;2.10;;;0.77;;
63398;SDS011;49533;-34.520;150.798;2023-06-10T06:45:40;0.95;;;0.82;;
63398;SDS011;49533;-34.520;150.798;2023-06-10T06:48:07;1.60;;;0.63;;
63398;SDS011;49533;-34.520;150.798;2023-06-10T06:50:35;2.55;;;0.93;;
63398;SDS011;49533;-34.520;150.798;2023-06-10T06:53:02;2.25;;;0.90;;
63398;SDS011;49533;-34.520;150.798;2023-06-10T06:55:30;1.45;;;0.60;;
63398;SDS011;49533;-34.520;150.798;2023-06-10T06:57:57;4.13;;;0.93;;
63398;SDS011;49533;-34.520;150.798;2023-06-10T07:00:28;0.90;;;0.70;;
63398;SDS011;49533;-34.520;150.798;2023-06-10T07:02:55;2.25;;;0.88;;
63398;SDS011;49533;-34.520;150.798;2023-06-10T07:05:23;1.65;;;0.80;;
63398;SDS011;49533;-34.520;150.798;2023-06-10T07:07:53;1.95;;;1.00;;
63398;SDS011;49533;-34.520;150.798;2023-06-10T07:10:22;1.13;;;0.60;;
63398;SDS011;49533;-34.520;150.798;2023-06-10T07:12:51;1.63;;;0.77;;
63398;SDS011;49533;-34.520;150.798;2023-06-10T07:15:18;1.23;;;0.77;;
63398;SDS011;49533;-34.520;150.798;2023-06-10T07:17:46;3.05;;;0.63;;
63398;SDS011;49533;-34.520;150.798;2023-06-10T07:20:13;1.30;;;0.77;;
63398;SDS011;49533;-34.520;150.798;2023-06-10T07:22:41;2.88;;;1.23;;
63398;SDS011;49533;-34.520;150.798;2023-06-10T07:25:08;1.85;;;0.90;;
63398;SDS011;49533;-34.520;150.798;2023-06-10T07:27:36;1.95;;;1.10;;
63398;SDS011;49533;-34.520;150.798;2023-06-10T07:30:04;2.92;;;1.65;;
63398;SDS011;49533;-34.520;150.798;2023-06-10T07:32:33;3.50;;;1.92;;
63398;SDS011;49533;-34.520;150.798;2023-06-10T07:35:01;2.50;;;1.40;;
63398;SDS011;49533;-34.520;150.798;2023-06-10T07:37:28;1.75;;;1.38;;
63398;SDS011;49533;-34.520;150.798;2023-06-10T07:39:56;2.22;;;1.20;;
63398;SDS011;49533;-34.520;150.798;2023-06-10T07:42:23;2.42;;;1.30;;
63398;SDS011;49533;-34.520;150.798;2023-06-10T07:44:50;2.20;;;1.85;;
63398;SDS011;49533;-34.520;150.798;2023-06-10T07:47:17;2.65;;;1.48;;
63398;SDS011;49533;-34.520;150.798;2023-06-10T07:49:45;1.77;;;1.60;;
63398;SDS011;49533;-34.520;150.798;2023-06-10T07:52:12;2.92;;;1.92;;
63398;SDS011;49533;-34.520;150.798;2023-06-10T07:54:39;3.08;;;1.80;;
63398;SDS011;49533;-34.520;150.798;2023-06-10T07:57:06;2.17;;;1.52;;
63398;SDS011;49533;-34.520;150.798;2023-06-10T07:59:34;2.70;;;1.60;;
63398;SDS011;49533;-34.520;150.798;2023-06-10T08:02:01;1.60;;;1.50;;
63398;SDS011;49533;-34.520;150.798;2023-06-10T08:04:28;3.55;;;1.48;;
63398;SDS011;49533;-34.520;150.798;2023-06-10T08:06:56;2.30;;;1.55;;
63398;SDS011;49533;-34.520;150.798;2023-06-10T08:09:23;2.05;;;1.40;;
63398;SDS011;49533;-34.520;150.798;2023-06-10T08:11:50;2.88;;;1.55;;
63398;SDS011;49533;-34.520;150.798;2023-06-10T08:14:17;1.60;;;1.20;;
63398;SDS011;49533;-34.520;150.798;2023-06-10T08:16:44;1.33;;;0.88;;
63398;SDS011;49533;-34.520;150.798;2023-06-10T08:19:12;2.63;;;1.50;;
63398;SDS011;49533;-34.520;150.798;2023-06-10T08:21:39;1.45;;;1.08;;
63398;SDS011;49533;-34.520;150.798;2023-06-10T08:24:06;2.75;;;1.25;;
63398;SDS011;49533;-34.520;150.798;2023-06-10T08:26:34;2.25;;;1.38;;
63398;SDS011;49533;-34.520;150.798;2023-06-10T08:29:02;2.45;;;1.08;;
63398;SDS011;49533;-34.520;150.798;2023-06-10T08:31:29;2.63;;;1.20;;
63398;SDS011;49533;-34.520;150.798;2023-06-10T08:33:56;2.20;;;1.20;;
63398;SDS011;49533;-34.520;150.798;2023-06-10T08:36:23;1.30;;;1.20;;
63398;SDS011;49533;-34.520;150.798;2023-06-10T08:38:53;3.15;;;1.40;;
63398;SDS011;49533;-34.520;150.798;2023-06-10T08:41:21;2.15;;;1.50;;
63398;SDS011;49533;-34.520;150.798;2023-06-10T08:43:56;2.78;;;1.42;;
63398;SDS011;49533;-34.520;150.798;2023-06-10T08:46:28;5.22;;;1.30;;
63398;SDS011;49533;-34.520;150.798;2023-06-10T08:48:58;2.20;;;1.60;;
63398;SDS011;49533;-34.520;150.798;2023-06-10T08:51:30;1.35;;;1.02;;
63398;SDS011;49533;-34.520;150.798;2023-06-10T08:54:02;2.47;;;1.55;;
63398;SDS011;49533;-34.520;150.798;2023-06-10T08:56:39;1.92;;;1.25;;
63398;SDS011;49533;-34.520;150.798;2023-06-10T08:59:06;4.95;;;1.48;;
63398;SDS011;49533;-34.520;150.798;2023-06-10T09:01:35;2.85;;;1.45;;
63398;SDS011;49533;-34.520;150.798;2023-06-10T09:04:03;2.60;;;1.63;;
63398;SDS011;49533;-34.520;150.798;2023-06-10T09:06:31;2.25;;;1.30;;
63398;SDS011;49533;-34.520;150.798;2023-06-10T09:08:59;3.22;;;1.75;;
63398;SDS011;49533;-34.520;150.798;2023-06-10T09:11:27;2.35;;;1.50;;
63398;SDS011;49533;-34.520;150.798;2023-06-10T09:13:54;3.58;;;1.60;;
63398;SDS011;49533;-34.520;150.798;2023-06-10T09:16:21;6.60;;;2.03;;
63398;SDS011;49533;-34.520;150.798;2023-06-10T09:18:49;5.50;;;1.83;;
63398;SDS011;49533;-34.520;150.798;2023-06-10T09:21:22;2.75;;;1.50;;
63398;SDS011;49533;-34.520;150.798;2023-06-10T09:23:49;2.90;;;1.65;;
63398;SDS011;49533;-34.520;150.798;2023-06-10T09:26:18;3.20;;;1.15;;
63398;SDS011;49533;-34.520;150.798;2023-06-10T09:28:48;1.48;;;1.00;;
63398;SDS011;49533;-34.520;150.798;2023-06-10T09:31:15;3.65;;;1.58;;
63398;SDS011;49533;-34.520;150.798;2023-06-10T09:33:47;2.38;;;1.42;;
63398;SDS011;49533;-34.520;150.798;2023-06-10T09:36:21;3.78;;;1.48;;
63398;SDS011;49533;-34.520;150.798;2023-06-10T09:38:49;2.60;;;1.60;;
63398;SDS011;49533;-34.520;150.798;2023-06-10T09:41:16;4.80;;;1.58;;
63398;SDS011;49533;-34.520;150.798;2023-06-10T09:43:45;3.00;;;1.45;;
63398;SDS011;49533;-34.520;150.798;2023-06-10T09:46:15;3.10;;;1.25;;
63398;SDS011;49533;-34.520;150.798;2023-06-10T09:48:44;2.58;;;1.23;;
63398;SDS011;49533;-34.520;150.798;2023-06-10T09:51:12;3.33;;;1.30;;
63398;SDS011;49533;-34.520;150.798;2023-06-10T09:53:42;2.70;;;1.10;;
63398;SDS011;49533;-34.520;150.798;2023-06-10T09:56:13;4.10;;;1.40;;
63398;SDS011;49533;-34.520;150.798;2023-06-10T09:58:40;2.47;;;1.20;;
63398;SDS011;49533;-34.520;150.798;2023-06-10T10:01:10;1.83;;;1.35;;
63398;SDS011;49533;-34.520;150.798;2023-06-10T10:03:45;2.50;;;1.25;;
63398;SDS011;49533;-34.520;150.798;2023-06-10T10:06:16;3.88;;;1.70;;
63398;SDS011;49533;-34.520;150.798;2023-06-10T10:08:45;2.17;;;1.30;;
63398;SDS011;49533;-34.520;150.798;2023-06-10T10:11:14;1.75;;;1.15;;
63398;SDS011;49533;-34.520;150.798;2023-06-10T10:13:45;2.50;;;1.40;;
63398;SDS011;49533;-34.520;150.798;2023-06-10T10:16:16;2.70;;;1.40;;
63398;SDS011;49533;-34.520;150.798;2023-06-10T10:18:46;3.60;;;1.25;;
63398;SDS011;49533;-34.520;150.798;2023-06-10T10:21:21;3.67;;;1.35;;
63398;SDS011;49533;-34.520;150.798;2023-06-10T10:23:58;4.30;;;1.50;;
63398;SDS011;49533;-34.520;150.798;2023-06-10T10:26:33;2.47;;;1.27;;
63398;SDS011;49533;-34.520;150.798;2023-06-10T10:29:05;2.65;;;1.02;;
63398;SDS011;49533;-34.520;150.798;2023-06-10T10:31:43;3.75;;;1.30;;
63398;SDS011;49533;-34.520;150.798;2023-06-10T10:34:12;1.77;;;0.95;;
63398;SDS011;49533;-34.520;150.798;2023-06-10T10:36:42;1.05;;;0.95;;
63398;SDS011;49533;-34.520;150.798;2023-06-10T10:39:10;1.80;;;1.00;;
63398;SDS011;49533;-34.520;150.798;2023-06-10T10:41:38;1.70;;;1.13;;
63398;SDS011;49533;-34.520;150.798;2023-06-10T10:44:06;2.53;;;1.08;;
63398;SDS011;49533;-34.520;150.798;2023-06-10T10:46:44;1.95;;;1.00;;
63398;SDS011;49533;-34.520;150.798;2023-06-10T10:49:17;2.88;;;1.35;;
63398;SDS011;49533;-34.520;150.798;2023-06-10T10:51:55;1.15;;;0.90;;
63398;SDS011;49533;-34.520;150.798;2023-06-10T10:54:27;3.25;;;0.95;;
63398;SDS011;49533;-34.520;150.798;2023-06-10T10:59:51;3.22;;;1.08;;
63398;SDS011;49533;-34.520;150.798;2023-06-10T11:02:32;1.13;;;0.60;;
63398;SDS011;49533;-34.520;150.798;2023-06-10T11:05:05;1.50;;;0.93;;
63398;SDS011;49533;-34.520;150.798;2023-06-10T11:07:34;0.90;;;0.80;;
63398;SDS011;49533;-34.520;150.798;2023-06-10T11:10:05;2.20;;;0.93;;
63398;SDS011;49533;-34.520;150.798;2023-06-10T11:12:55;2.50;;;1.05;;
63398;SDS011;49533;-34.520;150.798;2023-06-10T11:15:24;2.05;;;1.15;;
63398;SDS011;49533;-34.520;150.798;2023-06-10T11:20:45;1.40;;;0.93;;
63398;SDS011;49533;-34.520;150.798;2023-06-10T11:23:38;2.78;;;1.23;;
63398;SDS011;49533;-34.520;150.798;2023-06-10T11:26:13;1.33;;;0.82;;
63398;SDS011;49533;-34.520;150.798;2023-06-10T11:31:31;1.25;;;0.80;;
63398;SDS011;49533;-34.520;150.798;2023-06-10T11:34:02;3.60;;;1.38;;
63398;SDS011;49533;-34.520;150.798;2023-06-10T11:36:32;2.13;;;0.88;;
63398;SDS011;49533;-34.520;150.798;2023-06-10T11:39:04;1.63;;;1.02;;
63398;SDS011;49533;-34.520;150.798;2023-06-10T11:41:32;2.22;;;1.42;;
63398;SDS011;49533;-34.520;150.798;2023-06-10T11:44:02;1.38;;;0.82;;
63398;SDS011;49533;-34.520;150.798;2023-06-10T11:46:31;1.77;;;0.88;;
63398;SDS011;49533;-34.520;150.798;2023-06-10T11:48:58;2.65;;;1.02;;
63398;SDS011;49533;-34.520;150.798;2023-06-10T11:51:27;1.48;;;0.93;;
63398;SDS011;49533;-34.520;150.798;2023-06-10T11:53:56;2.42;;;1.20;;
63398;SDS011;49533;-34.520;150.798;2023-06-10T11:56:23;1.40;;;0.80;;
63398;SDS011;49533;-34.520;150.798;2023-06-10T11:58:54;1.25;;;0.90;;
63398;SDS011;49533;-34.520;150.798;2023-06-10T12:01:23;1.65;;;1.00;;
63398;SDS011;49533;-34.520;150.798;2023-06-10T12:03:58;1.52;;;1.17;;
63398;SDS011;49533;-34.520;150.798;2023-06-10T12:06:26;2.60;;;0.93;;
63398;SDS011;49533;-34.520;150.798;2023-06-10T12:08:54;2.10;;;1.20;;
63398;SDS011;49533;-34.520;150.798;2023-06-10T12:11:22;1.10;;;0.82;;
63398;SDS011;49533;-34.520;150.798;2023-06-10T12:13:49;3.33;;;1.00;;
63398;SDS011;49533;-34.520;150.798;2023-06-10T12:16:17;3.80;;;1.23;;
63398;SDS011;49533;-34.520;150.798;2023-06-10T12:18:44;1.67;;;0.93;;
63398;SDS011;49533;-34.520;150.798;2023-06-10T12:21:16;0.85;;;0.70;;
63398;SDS011;49533;-34.520;150.798;2023-06-10T12:26:36;1.55;;;0.90;;
63398;SDS011;49533;-34.520;150.798;2023-06-10T12:29:15;3.42;;;0.90;;
63398;SDS011;49533;-34.520;150.798;2023-06-10T12:31:52;2.70;;;0.80;;
63398;SDS011;49533;-34.520;150.798;2023-06-10T12:34:30;1.02;;;0.60;;
63398;SDS011;49533;-34.520;150.798;2023-06-10T12:36:59;2.85;;;1.42;;
63398;SDS011;49533;-34.520;150.798;2023-06-10T12:39:30;1.05;;;0.60;;
63398;SDS011;49533;-34.520;150.798;2023-06-10T12:41:58;1.10;;;0.85;;
63398;SDS011;49533;-34.520;150.798;2023-06-10T12:44:28;2.53;;;0.77;;
63398;SDS011;49533;-34.520;150.798;2023-06-10T12:46:56;2.33;;;0.55;;
63398;SDS011;49533;-34.520;150.798;2023-06-10T12:49:26;2.80;;;0.60;;
63398;SDS011;49533;-34.520;150.798;2023-06-10T12:51:53;1.70;;;0.80;;
63398;SDS011;49533;-34.520;150.798;2023-06-10T12:54:20;1.75;;;0.70;;
63398;SDS011;49533;-34.520;150.798;2023-06-10T12:56:48;2.20;;;0.95;;
63398;SDS011;49533;-34.520;150.798;2023-06-10T12:59:15;3.20;;;1.08;;
63398;SDS011;49533;-34.520;150.798;2023-06-10T13:01:43;1.83;;;0.70;;
63398;SDS011;49533;-34.520;150.798;2023-06-10T13:04:10;2.67;;;1.10;;
63398;SDS011;49533;-34.520;150.798;2023-06-10T13:06:37;1.55;;;0.90;;
63398;SDS011;49533;-34.520;150.798;2023-06-10T13:09:05;1.80;;;0.90;;
63398;SDS011;49533;-34.520;150.798;2023-06-10T13:11:33;1.67;;;0.70;;
63398;SDS011;49533;-34.520;150.798;2023-06-10T13:14:01;1.15;;;0.65;;
63398;SDS011;49533;-34.520;150.798;2023-06-10T13:16:30;3.13;;;1.50;;
63398;SDS011;49533;-34.520;150.798;2023-06-10T13:18:58;1.00;;;0.65;;
63398;SDS011;49533;-34.520;150.798;2023-06-10T13:21:27;1.50;;;1.00;;
63398;SDS011;49533;-34.520;150.798;2023-06-10T13:23:54;1.45;;;0.95;;
63398;SDS011;49533;-34.520;150.798;2023-06-10T13:26:21;1.95;;;1.00;;
63398;SDS011;49533;-34.520;150.798;2023-06-10T13:28:48;3.05;;;0.95;;
63398;SDS011;49533;-34.520;150.798;2023-06-10T13:31:15;1.55;;;0.80;;
63398;SDS011;49533;-34.520;150.798;2023-06-10T13:33:42;1.20;;;0.75;;
63398;SDS011;49533;-34.520;150.798;2023-06-10T13:36:10;1.77;;;1.00;;
63398;SDS011;49533;-34.520;150.798;2023-06-10T13:38:38;1.80;;;1.02;;
63398;SDS011;49533;-34.520;150.798;2023-06-10T13:41:05;1.58;;;0.98;;
63398;SDS011;49533;-34.520;150.798;2023-06-10T13:43:33;2.17;;;1.08;;
63398;SDS011;49533;-34.520;150.798;2023-06-10T13:46:00;1.52;;;0.80;;
63398;SDS011;49533;-34.520;150.798;2023-06-10T13:48:27;0.80;;;0.77;;
63398;SDS011;49533;-34.520;150.798;2023-06-10T13:50:54;2.55;;;1.08;;
63398;SDS011;49533;-34.520;150.798;2023-06-10T13:53:21;2.08;;;0.80;;
63398;SDS011;49533;-34.520;150.798;2023-06-10T13:55:49;1.50;;;1.15;;
63398;SDS011;49533;-34.520;150.798;2023-06-10T13:58:16;2.63;;;1.00;;
63398;SDS011;49533;-34.520;150.798;2023-06-10T14:00:43;2.50;;;0.90;;
63398;SDS011;49533;-34.520;150.798;2023-06-10T14:03:10;2.35;;;0.85;;
63398;SDS011;49533;-34.520;150.798;2023-06-10T14:05:37;1.45;;;1.00;;
63398;SDS011;49533;-34.520;150.798;2023-06-10T14:08:04;1.67;;;0.77;;
63398;SDS011;49533;-34.520;150.798;2023-06-10T14:10:32;2.38;;;0.85;;
63398;SDS011;49533;-34.520;150.798;2023-06-10T14:12:59;1.40;;;0.70;;
63398;SDS011;49533;-34.520;150.798;2023-06-10T14:15:27;1.83;;;1.10;;
63398;SDS011;49533;-34.520;150.798;2023-06-10T14:17:54;1.60;;;1.02;;
63398;SDS011;49533;-34.520;150.798;2023-06-10T14:20:21;3.70;;;1.00;;
63398;SDS011;49533;-34.520;150.798;2023-06-10T14:22:48;3.13;;;0.85;;
63398;SDS011;49533;-34.520;150.798;2023-06-10T14:25:15;0.80;;;0.60;;
63398;SDS011;49533;-34.520;150.798;2023-06-10T14:27:43;1.17;;;0.90;;
63398;SDS011;49533;-34.520;150.798;2023-06-10T14:30:12;1.90;;;1.20;;